Archival Weather

General Ignacio P Garcia Intl

General Ignacio P Garcia Intl, Mexico (MMHO)

Report from: Wednesday, December 6, 2023 5:40 AM CST
Current time: Friday, February 23, 2024 1:41 PM CST

Current weather – Weather history – Daily summaries
Weather forecast

Temperature13.0°C (55.4°F)
Dew point-2.0°C (28.4°F)
Winds 4 kts (2.1 m/s, 4.6 mph) East-Northeast (70°)
Visibility10 mi. (16.1 km)
Clouds Few clouds 20,000 ft. (6,096 m)
Altimeter30.03 in.Hg (1017 mB)
Relative humidity35 %
Density altitude-277 ft. (-84 m)
Sea-level pressure101.7 kPa (1017 mB, 30.03 in.Hg)
Remarks Pressure falling
Flight conditions Visual Meteorological Conditions
Raw dataMMHO 061140Z 07004KT 10SM FEW200 13/M02 A3003 RMK SLP169 57007 959 8/008 HZY
An error has occurred. This application may no longer respond until reloaded. Reload 🗙